createdAt,value
2023-01-08T00:00:42.187Z,97438.78
2023-01-08T00:03:16.747Z,97434.28
2023-01-08T00:05:49.893Z,97427.78
2023-01-08T00:08:22.907Z,97425.75
2023-01-08T00:10:56.646Z,97427.78
2023-01-08T00:13:30.270Z,97428.41
2023-01-08T00:16:09.189Z,97431.81
2023-01-08T00:18:43.929Z,97434.41
2023-01-08T00:21:17.068Z,97439.63
2023-01-08T00:23:50.512Z,97435.34
2023-01-08T00:26:23.563Z,97423.25
2023-01-08T00:28:56.633Z,97419.47
2023-01-08T00:31:29.762Z,97409.66
2023-01-08T00:34:04.205Z,97419.50
2023-01-08T00:36:37.245Z,97416.75
2023-01-08T00:39:10.252Z,97403.09
2023-01-08T00:41:45.509Z,97404.09
2023-01-08T00:44:18.599Z,97405.13
2023-01-08T00:46:51.661Z,97406.88
2023-01-08T00:49:25.994Z,97398.44
2023-01-08T00:51:59.043Z,97397.78
2023-01-08T00:54:32.078Z,97398.56
2023-01-08T00:57:05.189Z,97389.13
2023-01-08T00:59:38.274Z,97390.88
2023-01-08T01:02:11.738Z,97384.06
2023-01-08T01:04:46.222Z,97372.84
2023-01-08T01:07:19.229Z,97354.69
2023-01-08T01:09:52.237Z,97365.66
2023-01-08T01:12:25.244Z,97357.94
2023-01-08T01:14:58.370Z,97362.28
2023-01-08T01:17:31.386Z,97347.91
2023-01-08T01:20:06.827Z,97358.00
2023-01-08T01:22:40.184Z,97349.44
2023-01-08T01:25:13.300Z,97359.78
2023-01-08T01:27:46.944Z,97361.00
2023-01-08T01:30:20.160Z,97355.97
2023-01-08T01:32:53.202Z,97352.84
2023-01-08T01:35:27.602Z,97352.34
2023-01-08T01:38:00.645Z,97352.69
2023-01-08T01:40:33.737Z,97357.25
2023-01-08T01:43:06.755Z,97357.97
2023-01-08T01:45:39.783Z,97367.53
2023-01-08T01:48:15.355Z,97372.72
2023-01-08T01:50:54.157Z,97372.09
2023-01-08T01:53:30.726Z,97359.72
2023-01-08T01:56:05.761Z,97362.00
2023-01-08T01:58:39.317Z,97368.16
2023-01-08T02:01:12.603Z,97369.03
2023-01-08T02:03:45.738Z,97371.66
2023-01-08T02:06:36.628Z,97368.66
2023-01-08T02:09:19.180Z,97362.59
2023-01-08T02:12:11.270Z,97355.91
2023-01-08T02:14:55.144Z,97359.19
2023-01-08T02:17:36.369Z,97354.38
2023-01-08T02:20:14.152Z,97354.25
2023-01-08T02:23:16.050Z,97355.16
2023-01-08T02:26:23.620Z,97351.09
2023-01-08T02:29:00.688Z,97334.97
2023-01-08T02:31:35.433Z,97325.88
2023-01-08T02:34:09.155Z,97329.16
2023-01-08T02:36:44.439Z,97322.47
2023-01-08T02:39:47.957Z,97318.06
2023-01-08T02:42:33.300Z,97304.63
2023-01-08T02:45:19.017Z,97303.47
2023-01-08T02:47:56.807Z,97308.22
2023-01-08T02:50:35.416Z,97292.56
2023-01-08T02:53:15.122Z,97282.06
2023-01-08T02:55:52.855Z,97268.19
2023-01-08T02:58:31.839Z,97266.03
2023-01-08T03:01:07.943Z,97259.44
2023-01-08T03:03:44.579Z,97247.19
2023-01-08T03:06:21.467Z,97246.75
2023-01-08T03:08:55.408Z,97243.69
2023-01-08T03:11:39.162Z,97240.88
2023-01-08T03:14:21.674Z,97231.66
2023-01-08T03:17:01.397Z,97240.00
2023-01-08T03:19:42.320Z,97242.75
2023-01-08T03:22:17.709Z,97234.75
2023-01-08T03:24:54.571Z,97236.66
2023-01-08T03:27:30.682Z,97232.38
2023-01-08T03:30:08.038Z,97231.06
2023-01-08T03:32:43.049Z,97232.72
2023-01-08T03:35:22.675Z,97232.38
2023-01-08T03:38:01.435Z,97232.28
2023-01-08T03:40:40.890Z,97225.34
2023-01-08T03:43:14.162Z,97217.63
2023-01-08T03:45:51.688Z,97222.22
2023-01-08T03:48:26.882Z,97217.50
2023-01-08T03:51:00.358Z,97209.72
2023-01-08T03:53:33.399Z,97208.41
2023-01-08T03:56:07.527Z,97193.81
2023-01-08T03:58:40.542Z,97193.16
2023-01-08T04:01:15.015Z,97199.22
2023-01-08T04:03:48.130Z,97199.44
2023-01-08T04:06:21.105Z,97202.47
2023-01-08T04:08:54.140Z,97196.78
2023-01-08T04:11:27.470Z,97199.66
2023-01-08T04:14:00.635Z,97198.22
2023-01-08T04:16:35.325Z,97196.47
2023-01-08T04:19:08.351Z,97197.91
2023-01-08T04:21:41.779Z,97192.88
2023-01-08T04:24:15.054Z,97194.81
2023-01-08T04:26:48.839Z,97198.22
2023-01-08T04:29:21.859Z,97182.44
2023-01-08T04:31:56.198Z,97180.13
2023-01-08T04:34:29.236Z,97180.56
2023-01-08T04:37:03.113Z,97189.59
2023-01-08T04:39:36.203Z,97189.78
2023-01-08T04:42:09.185Z,97191.09
2023-01-08T04:44:42.209Z,97191.66
2023-01-08T04:47:16.575Z,97192.22
2023-01-08T04:49:49.600Z,97193.53
2023-01-08T04:52:22.620Z,97190.00
2023-01-08T04:54:55.733Z,97198.47
2023-01-08T04:57:28.779Z,97192.88
2023-01-08T05:00:01.754Z,97189.72
2023-01-08T05:02:36.967Z,97193.09
2023-01-08T05:05:10.622Z,97203.22
2023-01-08T05:07:43.703Z,97197.81
2023-01-08T05:10:16.914Z,97198.59
2023-01-08T05:12:49.986Z,97201.91
2023-01-08T05:15:22.957Z,97205.22
2023-01-08T05:18:01.736Z,97220.81
2023-01-08T05:20:35.322Z,97229.16
2023-01-08T05:23:08.338Z,97245.66
2023-01-08T05:25:41.313Z,97243.88
2023-01-08T05:28:14.289Z,97250.59
2023-01-08T05:30:47.332Z,97240.34
2023-01-08T05:33:22.104Z,97234.09
2023-01-08T05:35:55.161Z,97225.88
2023-01-08T05:38:28.177Z,97235.06
2023-01-08T05:41:01.585Z,97230.00
2023-01-08T05:43:34.859Z,97240.44
2023-01-08T05:46:08.155Z,97230.00
2023-01-08T05:48:42.641Z,97228.78
2023-01-08T05:51:15.673Z,97226.31
2023-01-08T05:53:48.683Z,97226.75
2023-01-08T05:56:22.169Z,97228.63
2023-01-08T05:58:55.769Z,97214.31
2023-01-08T06:01:29.174Z,97223.66
2023-01-08T06:04:03.635Z,97224.09
2023-01-08T06:06:36.626Z,97227.31
2023-01-08T06:09:10.135Z,97228.84
2023-01-08T06:11:43.121Z,97220.81
2023-01-08T06:14:16.882Z,97210.72
2023-01-08T06:16:49.874Z,97207.59
2023-01-08T06:19:24.364Z,97213.09
2023-01-08T06:21:58.021Z,97214.22
2023-01-08T06:24:31.086Z,97226.84
2023-01-08T06:27:04.264Z,97207.16
2023-01-08T06:29:37.288Z,97201.66
2023-01-08T06:32:10.348Z,97198.34
2023-01-08T06:34:44.693Z,97192.19
2023-01-08T06:37:17.691Z,97202.41
2023-01-08T06:39:50.712Z,97189.72
2023-01-08T06:42:23.968Z,97157.50
2023-01-08T06:44:56.945Z,97151.81
2023-01-08T06:47:29.987Z,97181.06
2023-01-08T06:50:06.146Z,97204.97
2023-01-08T06:52:39.166Z,97207.56
2023-01-08T06:55:12.155Z,97217.59
2023-01-08T06:57:45.163Z,97223.66
2023-01-08T07:00:18.788Z,97227.91
2023-01-08T07:02:52.081Z,97209.41
2023-01-08T07:05:26.578Z,97206.78
2023-01-08T07:07:59.612Z,97203.53
2023-01-08T07:10:32.642Z,97208.44
2023-01-08T07:13:07.923Z,97217.16
2023-01-08T07:15:42.332Z,97219.22
2023-01-08T07:18:15.394Z,97228.13
2023-01-08T07:20:50.883Z,97232.81
2023-01-08T07:23:23.894Z,97212.84
2023-01-08T07:25:57.072Z,97219.66
2023-01-08T07:28:30.332Z,97214.78
2023-01-08T07:31:07.078Z,97220.06
2023-01-08T07:33:40.144Z,97223.47
2023-01-08T07:36:15.660Z,97228.84
2023-01-08T07:38:48.825Z,97223.97
2023-01-08T07:41:21.855Z,97222.44
2023-01-08T07:43:54.914Z,97210.72
2023-01-08T07:46:28.170Z,97207.63
2023-01-08T07:49:01.254Z,97212.88
2023-01-08T07:51:35.661Z,97215.72
2023-01-08T07:54:08.801Z,97210.94
2023-01-08T07:56:41.873Z,97224.81
2023-01-08T07:59:14.854Z,97216.75
2023-01-08T08:01:47.928Z,97221.81
2023-01-08T08:04:21.068Z,97224.72
2023-01-08T08:06:55.824Z,97217.59
2023-01-08T08:09:28.841Z,97217.22
2023-01-08T08:12:01.834Z,97217.22
2023-01-08T08:14:34.852Z,97216.53
2023-01-08T08:17:07.845Z,97215.88
2023-01-08T08:19:43.692Z,97210.97
2023-01-08T08:22:18.069Z,97202.78
2023-01-08T08:24:51.134Z,97191.47
2023-01-08T08:27:24.740Z,97182.56
2023-01-08T08:29:57.763Z,97177.00
2023-01-08T08:32:30.811Z,97187.31
2023-01-08T08:35:04.630Z,97184.97
2023-01-08T08:37:39.036Z,97193.19
2023-01-08T08:40:12.963Z,97193.09
2023-01-08T08:42:45.958Z,97192.22
2023-01-08T08:45:19.099Z,97182.28
2023-01-08T08:47:52.270Z,97182.88
2023-01-08T08:50:25.745Z,97181.63
2023-01-08T08:53:02.177Z,97182.69
2023-01-08T08:55:35.618Z,97177.19
2023-01-08T08:58:12.174Z,97168.88
2023-01-08T09:00:45.722Z,97170.94
2023-01-08T09:03:19.463Z,97177.97
2023-01-08T09:05:52.546Z,97176.59
2023-01-08T09:08:27.033Z,97167.50
2023-01-08T09:11:00.086Z,97176.09
2023-01-08T09:13:33.211Z,97165.72
2023-01-08T09:16:07.004Z,97175.00
2023-01-08T09:18:40.124Z,97165.84
2023-01-08T09:21:13.291Z,97163.47
2023-01-08T09:23:49.589Z,97160.38
2023-01-08T09:26:22.642Z,97164.91
2023-01-08T09:28:55.699Z,97164.22
2023-01-08T09:31:29.080Z,97159.31
2023-01-08T09:34:02.174Z,97164.00
2023-01-08T09:36:35.242Z,97160.94
2023-01-08T09:39:10.288Z,97163.19
2023-01-08T09:41:47.521Z,97160.03
2023-01-08T09:44:25.965Z,97160.03
2023-01-08T09:47:01.194Z,97154.25
2023-01-08T09:49:42.604Z,97148.97
2023-01-08T09:52:16.920Z,97148.78
2023-01-08T09:54:51.326Z,97160.31
2023-01-08T09:57:24.567Z,97152.59
2023-01-08T09:59:57.823Z,97158.09
2023-01-08T10:02:41.086Z,97156.41
2023-01-08T10:05:17.413Z,97155.66
2023-01-08T10:07:50.485Z,97149.97
2023-01-08T10:10:29.166Z,97155.84
2023-01-08T10:13:02.255Z,97153.47
2023-01-08T10:15:35.349Z,97153.28
2023-01-08T10:18:13.090Z,97154.25
2023-01-08T10:20:46.115Z,97155.41
2023-01-08T10:23:22.820Z,97157.06
2023-01-08T10:26:00.448Z,97146.03
2023-01-08T10:28:35.730Z,97148.97
2023-01-08T10:31:16.177Z,97146.91
2023-01-08T10:33:50.754Z,97141.22
2023-01-08T10:36:27.587Z,97138.16
2023-01-08T10:39:03.017Z,97132.41
2023-01-08T10:41:40.849Z,97133.31
2023-01-08T10:44:19.072Z,97136.03
2023-01-08T10:46:56.109Z,97123.84
2023-01-08T10:49:33.594Z,97124.56
2023-01-08T10:52:12.454Z,97127.63
2023-01-08T10:54:45.536Z,97122.31
2023-01-08T10:57:29.280Z,97115.81
2023-01-08T11:00:02.378Z,97103.53
2023-01-08T11:02:39.255Z,97100.41
2023-01-08T11:05:12.613Z,97107.03
2023-01-08T11:07:53.066Z,97103.63
2023-01-08T11:10:28.129Z,97093.97
2023-01-08T11:13:05.675Z,97082.56
2023-01-08T11:15:40.592Z,97083.22
2023-01-08T11:18:22.465Z,97083.13
2023-01-08T11:21:08.328Z,97077.50
2023-01-08T11:23:41.340Z,97073.44
2023-01-08T11:26:19.546Z,97075.53
2023-01-08T11:29:07.001Z,97079.13
2023-01-08T11:31:45.403Z,97071.91
2023-01-08T11:34:23.509Z,97069.69
2023-01-08T11:37:04.854Z,97066.59
2023-01-08T11:39:39.648Z,97067.44
2023-01-08T11:42:29.634Z,97075.25
2023-01-08T11:45:19.061Z,97049.31
2023-01-08T11:48:23.526Z,97052.34
2023-01-08T11:51:28.561Z,97049.78
2023-01-08T11:54:09.841Z,97038.03
2023-01-08T11:57:02.545Z,97022.09
2023-01-08T11:59:54.485Z,97015.78
2023-01-08T12:02:49.266Z,97016.16
2023-01-08T12:05:30.827Z,97006.00
2023-01-08T12:08:08.364Z,97011.13
2023-01-08T12:10:55.933Z,97010.31
2023-01-08T12:13:48.136Z,96999.00
2023-01-08T12:16:40.410Z,97003.06
2023-01-08T12:19:34.428Z,96991.50
2023-01-08T12:22:32.678Z,96983.22
2023-01-08T12:25:35.765Z,96971.41
2023-01-08T12:28:21.902Z,96961.50
2023-01-08T12:31:30.438Z,96967.94
2023-01-08T12:34:10.774Z,96968.91
2023-01-08T12:36:49.358Z,96971.00
2023-01-08T12:39:27.872Z,96954.81
2023-01-08T12:42:11.168Z,96949.00
2023-01-08T12:44:46.764Z,96944.72
2023-01-08T12:47:26.554Z,96948.34
2023-01-08T12:50:20.967Z,96945.81
2023-01-08T12:53:00.132Z,96943.31
2023-01-08T12:55:44.980Z,96939.97
2023-01-08T12:58:32.146Z,96951.78
2023-01-08T13:01:18.450Z,96950.81
2023-01-08T13:03:52.148Z,96958.75
2023-01-08T13:06:25.457Z,96959.56
2023-01-08T13:09:01.872Z,96951.84
2023-01-08T13:11:38.562Z,96947.69
2023-01-08T13:14:13.931Z,96943.41
2023-01-08T13:16:48.575Z,96946.75
2023-01-08T13:19:27.672Z,96930.66
2023-01-08T13:22:02.071Z,96929.69
2023-01-08T13:24:38.848Z,96930.66
2023-01-08T13:27:30.307Z,96924.81
2023-01-08T13:30:03.438Z,96916.44
2023-01-08T13:32:43.933Z,96925.00
2023-01-08T13:35:25.589Z,96920.13
2023-01-08T13:38:17.145Z,96924.00
2023-01-08T13:40:57.285Z,96923.06
2023-01-08T13:43:35.533Z,96914.47
2023-01-08T13:46:16.778Z,96923.06
2023-01-08T13:48:55.254Z,96916.88
2023-01-08T13:51:42.574Z,96911.06
2023-01-08T13:54:22.321Z,96905.03
2023-01-08T13:57:04.980Z,96897.28
2023-01-08T13:59:41.376Z,96898.16
2023-01-08T14:02:26.805Z,96897.22
2023-01-08T14:05:02.690Z,96890.31
2023-01-08T14:07:40.757Z,96893.78
2023-01-08T14:10:15.961Z,96891.47
2023-01-08T14:12:51.461Z,96885.84
2023-01-08T14:15:27.771Z,96880.19
2023-01-08T14:18:03.526Z,96871.94
2023-01-08T14:20:40.470Z,96878.47
2023-01-08T14:23:20.995Z,96873.69
2023-01-08T14:25:55.117Z,96852.09
2023-01-08T14:28:29.477Z,96855.50
2023-01-08T14:31:02.599Z,96856.66
2023-01-08T14:33:37.852Z,96871.09
2023-01-08T14:36:11.208Z,96858.75
2023-01-08T14:38:50.259Z,96860.72
2023-01-08T14:41:49.455Z,96863.63
2023-01-08T14:44:36.620Z,96860.06
2023-01-08T14:47:18.143Z,96868.91
2023-01-08T14:49:53.802Z,96859.53
2023-01-08T14:52:26.891Z,96858.66
2023-01-08T14:55:04.092Z,96859.44
2023-01-08T14:57:37.087Z,96859.41
2023-01-08T15:00:20.518Z,96848.06
2023-01-08T15:02:53.849Z,96846.38
2023-01-08T15:05:30.554Z,96844.53
2023-01-08T15:08:22.629Z,96845.28
2023-01-08T15:11:03.718Z,96840.09
2023-01-08T15:13:38.980Z,96847.59
2023-01-08T15:16:19.243Z,96829.72
2023-01-08T15:19:02.573Z,96828.69
2023-01-08T15:21:36.417Z,96821.56
2023-01-08T15:24:09.762Z,96823.38
2023-01-08T15:26:43.616Z,96809.53
2023-01-08T15:29:20.796Z,96799.34
2023-01-08T15:31:55.202Z,96804.44
2023-01-08T15:34:28.189Z,96796.66
2023-01-08T15:37:01.173Z,96806.84
2023-01-08T15:39:34.498Z,96799.88
2023-01-08T15:42:37.689Z,96803.94
2023-01-08T15:45:17.007Z,96798.72
2023-01-08T15:47:51.270Z,96792.56
2023-01-08T15:50:26.121Z,96784.59
2023-01-08T15:53:00.999Z,96782.59
2023-01-08T15:55:34.050Z,96778.06
2023-01-08T15:58:07.104Z,96789.00
2023-01-08T16:00:40.883Z,96781.13
2023-01-08T16:03:17.215Z,96767.19
2023-01-08T16:05:50.234Z,96766.69
2023-01-08T16:08:23.333Z,96761.59
2023-01-08T16:10:56.294Z,96762.16
2023-01-08T16:13:29.323Z,96761.97
2023-01-08T16:16:08.076Z,96759.28
2023-01-08T16:18:42.607Z,96749.69
2023-01-08T16:21:15.641Z,96752.66
2023-01-08T16:23:48.643Z,96749.25
2023-01-08T16:26:21.665Z,96754.91
2023-01-08T16:28:55.189Z,96753.72
2023-01-08T16:31:28.418Z,96762.16
2023-01-08T16:34:04.292Z,96756.84
2023-01-08T16:36:37.303Z,96749.84
2023-01-08T16:39:10.414Z,96746.16
2023-01-08T16:41:43.479Z,96747.78
2023-01-08T16:44:22.696Z,96745.19
2023-01-08T16:46:56.667Z,96739.72
2023-01-08T16:49:33.294Z,96719.22
2023-01-08T16:52:06.607Z,96724.00
2023-01-08T16:54:40.904Z,96718.69
2023-01-08T16:57:14.088Z,96716.28
2023-01-08T16:59:47.100Z,96708.31
2023-01-08T17:02:20.301Z,96697.69
2023-01-08T17:04:54.596Z,96690.97
2023-01-08T17:07:27.592Z,96689.25
2023-01-08T17:10:00.590Z,96684.88
2023-01-08T17:12:33.563Z,96684.72
2023-01-08T17:15:08.266Z,96682.09
2023-01-08T17:17:41.629Z,96656.00
2023-01-08T17:20:16.434Z,96662.75
2023-01-08T17:22:49.390Z,96655.06
2023-01-08T17:25:22.363Z,96658.56
2023-01-08T17:27:55.474Z,96658.38
2023-01-08T17:30:28.460Z,96652.22
2023-01-08T17:33:01.492Z,96651.00
2023-01-08T17:35:35.805Z,96664.41
2023-01-08T17:38:08.823Z,96664.38
2023-01-08T17:40:41.811Z,96666.09
2023-01-08T17:43:14.815Z,96674.59
2023-01-08T17:45:47.771Z,96681.19
2023-01-08T17:48:20.745Z,96672.38
2023-01-08T17:50:55.022Z,96664.66
2023-01-08T17:53:28.638Z,96666.44
2023-01-08T17:56:05.668Z,96659.59
2023-01-08T17:58:38.694Z,96646.75
2023-01-08T18:01:12.735Z,96653.59
2023-01-08T18:03:45.955Z,96656.28
2023-01-08T18:06:20.337Z,96654.09
2023-01-08T18:08:53.299Z,96660.09
2023-01-08T18:11:26.479Z,96660.09
2023-01-08T18:14:03.210Z,96654.75
2023-01-08T18:16:36.309Z,96655.00
2023-01-08T18:19:10.259Z,96639.91
2023-01-08T18:21:47.454Z,96641.97
2023-01-08T18:24:20.432Z,96634.84
2023-01-08T18:26:53.459Z,96635.03
2023-01-08T18:33:42.982Z,96625.78
2023-01-08T18:36:16.039Z,96635.34
2023-01-08T18:38:51.525Z,96628.66
2023-01-08T18:41:42.675Z,96612.78
2023-01-08T18:44:15.791Z,96606.28
2023-01-08T18:46:48.821Z,96592.53
2023-01-08T18:49:23.431Z,96585.06
2023-01-08T18:51:56.444Z,96590.69
2023-01-08T18:54:30.805Z,96585.03
2023-01-08T18:57:03.797Z,96581.09
2023-01-08T18:59:36.832Z,96580.06
2023-01-08T19:02:21.436Z,96572.63
2023-01-08T19:04:54.840Z,96563.28
2023-01-08T19:07:28.197Z,96567.69
2023-01-08T19:10:02.542Z,96574.22
2023-01-08T19:12:35.562Z,96574.22
2023-01-08T19:15:09.374Z,96573.59
2023-01-08T19:17:42.358Z,96572.06
2023-01-08T19:20:15.386Z,96564.19
2023-01-08T19:22:48.385Z,96555.81
2023-01-08T19:25:23.045Z,96558.09
2023-01-08T19:27:56.066Z,96568.41
2023-01-08T19:30:30.608Z,96554.84
2023-01-08T19:33:03.558Z,96548.72
2023-01-08T19:35:39.686Z,96548.44
2023-01-08T19:38:12.676Z,96531.81
2023-01-08T19:40:47.003Z,96526.72
2023-01-08T19:43:37.506Z,96527.75
2023-01-08T19:46:11.793Z,96519.97
2023-01-08T19:48:45.600Z,96504.25
2023-01-08T19:51:18.726Z,96500.31
2023-01-08T19:53:51.791Z,96505.56
2023-01-08T19:56:26.078Z,96518.66
2023-01-08T19:58:59.591Z,96514.59
2023-01-08T20:01:33.588Z,96513.31
2023-01-08T20:04:06.775Z,96510.78
2023-01-08T20:06:40.170Z,96511.41
2023-01-08T20:09:13.344Z,96504.66
2023-01-08T20:11:47.689Z,96502.22
2023-01-08T20:14:21.326Z,96497.44
2023-01-08T20:16:54.605Z,96503.69
2023-01-08T20:19:28.706Z,96498.75
2023-01-08T20:22:01.698Z,96498.03
2023-01-08T20:24:34.684Z,96487.25
2023-01-08T20:27:09.081Z,96492.63
2023-01-08T20:29:42.220Z,96486.53
2023-01-08T20:32:15.222Z,96474.53
2023-01-08T20:34:48.247Z,96479.06
2023-01-08T20:37:21.312Z,96473.25
2023-01-08T20:39:54.401Z,96473.97
2023-01-08T20:42:34.113Z,96466.25
2023-01-08T20:45:08.658Z,96467.38
2023-01-08T20:47:42.471Z,96460.75
2023-01-08T20:50:20.053Z,96460.13
2023-01-08T20:52:53.530Z,96462.09
2023-01-08T20:55:26.542Z,96443.34
2023-01-08T20:58:00.859Z,96435.88
2023-01-08T21:00:33.893Z,96435.19
2023-01-08T21:03:06.923Z,96427.81
2023-01-08T21:05:40.504Z,96433.22
2023-01-08T21:08:13.942Z,96443.09
2023-01-08T21:10:46.941Z,96441.56
2023-01-08T21:13:21.298Z,96435.22
2023-01-08T21:15:55.481Z,96440.88
2023-01-08T21:18:28.956Z,96436.03
2023-01-08T21:21:02.975Z,96436.22
2023-01-08T21:23:36.011Z,96429.97
2023-01-08T21:26:12.017Z,96421.69
2023-01-08T21:28:47.624Z,96409.38
2023-01-08T21:31:24.543Z,96404.81
2023-01-08T21:34:00.206Z,96403.88
2023-01-08T21:36:33.745Z,96407.50
2023-01-08T21:39:07.747Z,96408.66
2023-01-08T21:41:58.384Z,96404.56
2023-01-08T21:44:50.555Z,96401.25
2023-01-08T21:47:23.600Z,96395.31
2023-01-08T21:49:56.571Z,96389.47
2023-01-08T21:52:47.290Z,96387.88
2023-01-08T21:55:20.302Z,96373.44
2023-01-08T21:57:53.318Z,96364.25
2023-01-08T22:00:28.380Z,96363.47
2023-01-08T22:03:01.409Z,96369.66
2023-01-08T22:05:34.428Z,96367.50
2023-01-08T22:08:08.707Z,96369.31
2023-01-08T22:10:42.001Z,96354.28
2023-01-08T22:13:15.010Z,96360.69
2023-01-08T22:15:49.493Z,96353.16
2023-01-08T22:18:22.491Z,96343.88
2023-01-08T22:21:01.219Z,96338.19
2023-01-08T22:23:34.912Z,96328.28
2023-01-08T22:26:09.641Z,96332.81
2023-01-08T22:28:42.752Z,96336.09
2023-01-08T22:31:17.991Z,96337.50
2023-01-08T22:33:54.609Z,96333.25
2023-01-08T22:36:27.941Z,96325.50
2023-01-08T22:39:00.916Z,96337.72
2023-01-08T22:41:33.915Z,96336.69
2023-01-08T22:44:06.992Z,96338.41
2023-01-08T22:46:41.555Z,96333.06
2023-01-08T22:49:15.134Z,96332.44
2023-01-08T22:51:48.160Z,96332.81
2023-01-08T22:54:21.164Z,96334.16
2023-01-08T22:56:54.185Z,96330.34
2023-01-08T22:59:27.181Z,96325.06
2023-01-08T23:02:01.536Z,96325.75
2023-01-08T23:04:34.551Z,96324.94
2023-01-08T23:07:07.526Z,96320.91
2023-01-08T23:09:40.529Z,96311.81
2023-01-08T23:12:13.857Z,96319.31
2023-01-08T23:14:46.831Z,96319.56
2023-01-08T23:17:21.176Z,96323.03
2023-01-08T23:19:54.153Z,96323.81
2023-01-08T23:22:27.158Z,96315.91
2023-01-08T23:25:00.607Z,96307.22
2023-01-08T23:27:35.424Z,96314.28
2023-01-08T23:30:09.967Z,96312.44
2023-01-08T23:32:44.341Z,96307.94
2023-01-08T23:35:17.652Z,96311.22
2023-01-08T23:37:50.692Z,96302.19
2023-01-08T23:40:23.992Z,96300.19
2023-01-08T23:42:57.073Z,96297.34
2023-01-08T23:45:30.186Z,96291.28
2023-01-08T23:48:04.925Z,96282.09
2023-01-08T23:50:38.269Z,96284.31
2023-01-08T23:53:11.312Z,96273.94
2023-01-08T23:55:44.390Z,96277.97
2023-01-08T23:58:17.952Z,96278.66
